createdAt,value
2018-02-03T00:00:59.525Z,5.57
2018-02-03T00:03:29.568Z,5.58
2018-02-03T00:05:59.495Z,5.61
2018-02-03T00:08:30.079Z,5.58
2018-02-03T00:11:00.853Z,5.61
2018-02-03T00:13:31.141Z,5.76
2018-02-03T00:16:01.288Z,5.68
2018-02-03T00:18:31.592Z,5.73
2018-02-03T00:21:01.753Z,5.74
2018-02-03T00:23:31.955Z,5.75
2018-02-03T00:26:02.321Z,5.76
2018-02-03T00:28:32.922Z,5.69
2018-02-03T00:31:02.788Z,5.78
2018-02-03T00:33:33.133Z,5.72
2018-02-03T00:36:03.848Z,5.73
2018-02-03T00:38:33.733Z,5.73
2018-02-03T00:41:03.519Z,5.99
2018-02-03T00:43:33.529Z,5.88
2018-02-03T00:46:03.582Z,5.76
2018-02-03T00:48:33.735Z,5.70
2018-02-03T00:51:04.654Z,5.72
2018-02-03T00:53:35.432Z,5.75
2018-02-03T00:56:05.345Z,5.74
2018-02-03T00:58:35.514Z,5.71
2018-02-03T01:01:05.357Z,5.75
2018-02-03T01:03:36.108Z,5.71
2018-02-03T01:06:06.745Z,5.79
2018-02-03T01:08:37.399Z,5.74
2018-02-03T01:11:07.314Z,5.87
2018-02-03T01:13:37.273Z,5.75
2018-02-03T01:16:07.134Z,5.81
2018-02-03T01:18:37.015Z,5.71
2018-02-03T01:21:06.848Z,5.71
2018-02-03T01:23:37.544Z,5.71
2018-02-03T01:26:07.487Z,5.73
2018-02-03T01:28:38.649Z,5.69
2018-02-03T01:31:10.090Z,5.63
2018-02-03T01:33:43.773Z,5.66
2018-02-03T01:36:15.299Z,5.65
2018-02-03T01:38:46.496Z,5.67
2018-02-03T01:41:16.464Z,5.71
2018-02-03T01:43:46.273Z,5.63
2018-02-03T01:46:16.690Z,5.63
2018-02-03T01:48:46.708Z,5.63
2018-02-03T01:51:16.825Z,5.60
2018-02-03T01:53:46.841Z,5.56
2018-02-03T01:56:16.897Z,5.56
2018-02-03T01:58:46.977Z,5.66
2018-02-03T02:01:17.000Z,5.74
2018-02-03T02:03:46.938Z,5.65
2018-02-03T02:06:16.743Z,5.55
2018-02-03T02:08:46.750Z,5.73
2018-02-03T02:11:16.568Z,5.70
2018-02-03T02:13:46.425Z,5.60
2018-02-03T02:16:17.113Z,5.55
2018-02-03T02:18:47.278Z,5.43
2018-02-03T02:21:17.073Z,5.41
2018-02-03T02:23:47.064Z,5.42
2018-02-03T02:26:16.949Z,5.43
2018-02-03T02:28:46.876Z,5.40
2018-02-03T02:31:16.857Z,5.39
2018-02-03T02:33:46.800Z,5.41
2018-02-03T02:36:16.835Z,5.47
2018-02-03T02:38:46.769Z,5.45
2018-02-03T02:41:16.741Z,5.46
2018-02-03T02:43:46.647Z,5.47
2018-02-03T02:46:16.700Z,5.49
2018-02-03T02:48:46.470Z,5.40
2018-02-03T02:51:17.348Z,5.40
2018-02-03T02:53:47.336Z,5.42
2018-02-03T02:56:17.260Z,5.46
2018-02-03T02:58:47.215Z,5.53
2018-02-03T03:01:17.235Z,5.62
2018-02-03T03:03:47.240Z,5.63
2018-02-03T03:06:17.078Z,5.67
2018-02-03T03:08:47.249Z,5.53
2018-02-03T03:11:17.462Z,5.45
2018-02-03T03:13:47.433Z,5.41
2018-02-03T03:16:17.427Z,5.42
2018-02-03T03:18:47.392Z,5.36
2018-02-03T03:21:17.340Z,5.41
2018-02-03T03:23:47.316Z,5.49
2018-02-03T03:26:17.949Z,5.43
2018-02-03T03:28:48.660Z,5.41
2018-02-03T03:31:18.658Z,5.44
2018-02-03T03:33:48.635Z,5.45
2018-02-03T03:36:18.538Z,5.42
2018-02-03T03:38:48.306Z,5.34
2018-02-03T03:41:18.565Z,5.29
2018-02-03T03:43:49.362Z,5.23
2018-02-03T03:46:19.347Z,5.12
2018-02-03T03:48:49.195Z,5.18
2018-02-03T03:51:19.030Z,5.18
2018-02-03T03:53:49.006Z,5.20
2018-02-03T03:56:18.738Z,5.25
2018-02-03T03:58:48.999Z,5.17
2018-02-03T04:01:19.066Z,5.18
2018-02-03T04:03:49.043Z,5.09
2018-02-03T04:06:19.900Z,5.26
2018-02-03T04:08:49.911Z,5.24
2018-02-03T04:11:19.733Z,5.22
2018-02-03T04:13:49.958Z,5.27
2018-02-03T04:16:19.866Z,5.22
2018-02-03T04:18:50.077Z,5.18
2018-02-03T04:21:20.278Z,5.17
2018-02-03T04:23:50.850Z,5.20
2018-02-03T04:26:20.724Z,5.21
2018-02-03T04:28:51.298Z,5.15
2018-02-03T04:31:21.273Z,5.16
2018-02-03T04:33:51.956Z,5.17
2018-02-03T04:36:21.868Z,5.24
2018-02-03T04:38:51.713Z,5.23
2018-02-03T04:41:21.932Z,5.29
2018-02-03T04:43:51.845Z,5.34
2018-02-03T04:46:21.657Z,5.26
2018-02-03T04:48:54.048Z,5.36
2018-02-03T04:51:24.668Z,5.36
2018-02-03T04:53:54.462Z,5.35
2018-02-03T04:56:24.437Z,5.32
2018-02-03T04:58:54.292Z,5.30
2018-02-03T05:01:24.545Z,5.21
2018-02-03T05:03:54.487Z,5.13
2018-02-03T05:06:24.482Z,5.08
2018-02-03T05:08:54.341Z,5.10
2018-02-03T05:11:24.334Z,5.08
2018-02-03T05:13:54.986Z,5.06
2018-02-03T05:16:25.033Z,5.06
2018-02-03T05:18:55.038Z,5.08
2018-02-03T05:21:24.836Z,4.97
2018-02-03T05:23:54.853Z,4.91
2018-02-03T05:26:24.732Z,4.90
2018-02-03T05:28:54.508Z,4.87
2018-02-03T05:31:24.245Z,4.80
2018-02-03T05:33:54.469Z,4.80
2018-02-03T05:36:24.442Z,4.78
2018-02-03T05:38:54.326Z,4.84
2018-02-03T05:41:25.199Z,4.82
2018-02-03T05:43:55.148Z,4.86
2018-02-03T05:46:25.087Z,4.92
2018-02-03T05:48:55.710Z,4.94
2018-02-03T05:51:25.715Z,4.91
2018-02-03T05:53:55.613Z,4.92
2018-02-03T05:56:25.687Z,4.97
2018-02-03T05:58:55.544Z,4.95
2018-02-03T06:01:25.925Z,4.95
2018-02-03T06:03:56.550Z,4.89
2018-02-03T06:06:27.490Z,4.89
2018-02-03T06:08:58.905Z,4.88
2018-02-03T06:11:29.088Z,4.92
2018-02-03T06:13:59.306Z,4.91
2018-02-03T06:16:29.388Z,4.91
2018-02-03T06:19:00.770Z,4.93
2018-02-03T06:21:31.022Z,4.96
2018-02-03T06:24:01.309Z,4.97
2018-02-03T06:26:31.549Z,4.91
2018-02-03T06:29:01.604Z,4.90
2018-02-03T06:31:32.207Z,4.85
2018-02-03T06:34:02.341Z,4.87
2018-02-03T06:36:32.466Z,4.84
2018-02-03T06:39:02.610Z,4.78
2018-02-03T06:41:33.022Z,4.76
2018-02-03T06:44:03.365Z,4.79
2018-02-03T06:46:33.882Z,4.72
2018-02-03T06:49:05.156Z,4.74
2018-02-03T06:51:36.397Z,4.76
2018-02-03T06:54:07.055Z,4.76
2018-02-03T06:56:38.230Z,4.78
2018-02-03T06:59:08.883Z,4.84
2018-02-03T07:01:39.221Z,4.88
2018-02-03T07:04:09.585Z,4.84
2018-02-03T07:06:39.718Z,4.82
2018-02-03T07:09:10.905Z,4.84
2018-02-03T07:11:41.917Z,4.85
2018-02-03T07:14:12.343Z,4.86
2018-02-03T07:16:42.761Z,4.85
2018-02-03T07:19:12.800Z,4.92
2018-02-03T07:21:42.930Z,4.93
2018-02-03T07:24:13.250Z,4.96
2018-02-03T07:26:43.324Z,4.91
2018-02-03T07:29:13.793Z,4.93
2018-02-03T07:31:44.066Z,4.97
2018-02-03T07:34:14.650Z,4.95
2018-02-03T07:36:44.641Z,4.95
2018-02-03T07:39:14.789Z,4.89
2018-02-03T07:41:44.985Z,4.96
2018-02-03T07:44:14.889Z,4.98
2018-02-03T07:46:44.957Z,4.98
2018-02-03T07:49:14.893Z,5.21
2018-02-03T07:51:44.806Z,5.20
2018-02-03T07:54:14.929Z,5.26
2018-02-03T07:56:44.861Z,5.27
2018-02-03T07:59:15.177Z,5.28
2018-02-03T08:01:45.086Z,5.29
2018-02-03T08:04:16.078Z,5.25
2018-02-03T08:06:46.745Z,5.33
2018-02-03T08:09:16.623Z,5.27
2018-02-03T08:11:47.199Z,5.27
2018-02-03T08:14:17.641Z,5.30
2018-02-03T08:16:48.365Z,5.35
2018-02-03T08:19:19.058Z,5.31
2018-02-03T08:21:49.332Z,5.34
2018-02-03T08:24:20.432Z,5.39
2018-02-03T08:26:50.417Z,5.41
2018-02-03T08:29:20.429Z,5.39
2018-02-03T08:31:50.283Z,5.37
2018-02-03T08:34:20.540Z,5.42
2018-02-03T08:36:51.760Z,5.50
2018-02-03T08:39:22.054Z,5.43
2018-02-03T08:41:51.949Z,5.46
2018-02-03T08:44:22.049Z,5.35
2018-02-03T08:46:52.861Z,5.40
2018-02-03T08:49:22.878Z,5.50
2018-02-03T08:51:53.730Z,5.51
2018-02-03T08:54:23.736Z,5.56
2018-02-03T08:56:53.790Z,5.61
2018-02-03T08:59:24.652Z,5.69
2018-02-03T09:01:54.827Z,5.60
2018-02-03T09:04:25.481Z,5.70
2018-02-03T09:06:55.453Z,5.75
2018-02-03T09:09:25.345Z,5.71
2018-02-03T09:12:05.651Z,5.72
2018-02-03T09:14:35.534Z,5.77
2018-02-03T09:17:05.932Z,5.77
2018-02-03T09:19:36.048Z,5.69
2018-02-03T09:22:06.444Z,5.76
2018-02-03T09:24:36.948Z,5.67
2018-02-03T09:27:06.928Z,5.76
2018-02-03T09:29:36.818Z,5.84
2018-02-03T09:32:06.834Z,5.77
2018-02-03T09:34:36.702Z,5.83
2018-02-03T09:37:06.737Z,5.90
2018-02-03T09:39:36.670Z,6.98
2018-02-03T09:42:06.609Z,6.99
2018-02-03T09:44:36.690Z,7.00
2018-02-03T09:47:06.788Z,6.89
2018-02-03T09:49:37.761Z,7.22
2018-02-03T09:52:07.654Z,7.35
2018-02-03T09:54:38.435Z,7.29
2018-02-03T09:57:08.397Z,7.43
2018-02-03T09:59:39.365Z,7.51
2018-02-03T10:02:09.478Z,7.52
2018-02-03T10:04:39.748Z,7.38
2018-02-03T10:07:09.952Z,7.23
2018-02-03T10:09:40.001Z,7.41
2018-02-03T10:12:10.397Z,7.40
2018-02-03T10:14:40.373Z,7.46
2018-02-03T10:17:10.520Z,7.55
2018-02-03T10:19:41.317Z,7.60
2018-02-03T10:22:11.265Z,7.65
2018-02-03T10:24:41.962Z,7.76
2018-02-03T10:27:11.938Z,7.83
2018-02-03T10:29:42.713Z,7.85
2018-02-03T10:32:12.770Z,7.79
2018-02-03T10:34:42.973Z,7.68
2018-02-03T10:37:12.885Z,7.89
2018-02-03T10:39:42.738Z,7.83
2018-02-03T10:42:13.590Z,7.70
2018-02-03T10:44:43.713Z,7.54
2018-02-03T10:47:13.689Z,7.36
2018-02-03T10:49:43.612Z,7.28
2018-02-03T10:52:13.621Z,7.29
2018-02-03T10:54:43.599Z,7.34
2018-02-03T10:57:13.666Z,7.08
2018-02-03T10:59:43.635Z,7.14
2018-02-03T11:02:13.538Z,7.17
2018-02-03T11:04:43.754Z,7.26
2018-02-03T11:07:13.699Z,7.26
2018-02-03T11:09:43.657Z,7.26
2018-02-03T11:12:13.731Z,7.04
2018-02-03T11:14:43.623Z,7.15
2018-02-03T11:17:13.805Z,7.09
2018-02-03T11:19:43.834Z,7.12
2018-02-03T11:22:14.816Z,7.75
2018-02-03T11:24:45.107Z,7.40
2018-02-03T11:27:15.247Z,7.15
2018-02-03T11:29:45.229Z,7.11
2018-02-03T11:32:15.194Z,7.16
2018-02-03T11:34:45.683Z,7.22
2018-02-03T11:37:16.442Z,7.10
2018-02-03T11:39:46.434Z,7.14
2018-02-03T11:42:20.191Z,7.09
2018-02-03T11:44:50.294Z,7.00
2018-02-03T11:47:20.529Z,6.98
2018-02-03T11:49:50.982Z,6.98
2018-02-03T11:52:22.097Z,7.01
2018-02-03T11:54:52.509Z,6.99
2018-02-03T11:57:22.763Z,6.99
2018-02-03T11:59:53.101Z,6.99
2018-02-03T12:02:23.287Z,7.02
2018-02-03T12:04:53.504Z,7.03
2018-02-03T12:07:23.738Z,7.08
2018-02-03T12:09:53.754Z,7.22
2018-02-03T12:12:23.645Z,7.26
2018-02-03T12:14:53.654Z,7.30
2018-02-03T12:17:23.878Z,7.27
2018-02-03T12:19:54.250Z,7.23
2018-02-03T12:22:24.460Z,7.37
2018-02-03T12:24:54.454Z,7.38
2018-02-03T12:27:25.171Z,7.27
2018-02-03T12:29:55.725Z,7.26
2018-02-03T12:32:26.617Z,7.25
2018-02-03T12:34:56.674Z,7.44
2018-02-03T12:37:26.897Z,7.31
2018-02-03T12:39:57.644Z,7.40
2018-02-03T12:42:28.414Z,7.40
2018-02-03T12:44:58.470Z,7.42
2018-02-03T12:47:28.821Z,7.43
2018-02-03T12:49:59.505Z,7.50
2018-02-03T12:52:29.349Z,7.80
2018-02-03T12:54:59.362Z,7.81
2018-02-03T12:57:29.282Z,7.78
2018-02-03T13:00:00.053Z,8.00
2018-02-03T13:02:29.917Z,10.89
2018-02-03T13:04:59.947Z,12.33
2018-02-03T13:07:31.004Z,12.82
2018-02-03T13:10:01.927Z,13.48
2018-02-03T13:12:32.002Z,13.34
2018-02-03T13:15:02.074Z,13.13
2018-02-03T13:17:32.102Z,13.11
2018-02-03T13:20:03.838Z,10.83
2018-02-03T13:22:34.272Z,9.68
2018-02-03T13:25:04.538Z,9.20
2018-02-03T13:27:34.551Z,8.75
2018-02-03T13:30:04.497Z,8.56
2018-02-03T13:32:34.457Z,8.41
2018-02-03T13:35:05.288Z,8.16
2018-02-03T13:37:36.970Z,8.01
2018-02-03T13:40:08.038Z,7.91
2018-02-03T13:42:40.519Z,7.80
2018-02-03T13:45:10.324Z,7.69
2018-02-03T13:47:40.267Z,7.62
2018-02-03T13:50:10.214Z,7.70
2018-02-03T13:52:40.026Z,7.78
2018-02-03T13:55:09.945Z,7.60
2018-02-03T13:57:40.777Z,10.21
2018-02-03T14:00:11.472Z,9.68
2018-02-03T14:02:41.686Z,8.79
2018-02-03T14:05:11.929Z,8.70
2018-02-03T14:07:41.817Z,8.34
2018-02-03T14:10:12.729Z,8.20
2018-02-03T14:12:42.842Z,8.11
2018-02-03T14:15:12.789Z,7.95
2018-02-03T14:17:43.769Z,7.82
2018-02-03T14:20:13.729Z,7.70
2018-02-03T14:22:43.668Z,7.70
2018-02-03T14:25:14.610Z,8.67
2018-02-03T14:27:45.705Z,10.80
2018-02-03T14:30:15.626Z,10.12
2018-02-03T14:32:45.954Z,9.24
2018-02-03T14:35:16.101Z,8.60
2018-02-03T14:37:47.003Z,8.23
2018-02-03T14:40:17.922Z,7.98
2018-02-03T14:42:47.905Z,7.86
2018-02-03T14:45:17.783Z,7.82
2018-02-03T14:47:48.048Z,7.79
2018-02-03T14:50:17.990Z,7.63
2018-02-03T14:52:48.735Z,7.36
2018-02-03T14:55:18.858Z,7.30
2018-02-03T14:57:49.080Z,7.29
2018-02-03T15:00:19.772Z,7.19
2018-02-03T15:02:49.938Z,7.17
2018-02-03T15:05:19.817Z,7.14
2018-02-03T15:07:50.050Z,7.09
2018-02-03T15:10:20.091Z,7.07
2018-02-03T15:12:50.085Z,7.03
2018-02-03T15:15:21.059Z,7.02
2018-02-03T15:17:52.736Z,6.98
2018-02-03T15:20:23.397Z,7.01
2018-02-03T15:22:53.352Z,7.05
2018-02-03T15:25:24.396Z,6.97
2018-02-03T15:27:54.558Z,7.06
2018-02-03T15:30:24.762Z,7.00
2018-02-03T15:32:55.539Z,6.93
2018-02-03T15:35:26.018Z,6.88
2018-02-03T15:37:56.049Z,6.85
2018-02-03T15:40:25.880Z,6.84
2018-02-03T15:42:56.824Z,6.83
2018-02-03T15:45:27.994Z,6.84
2018-02-03T15:47:58.190Z,6.74
2018-02-03T15:50:28.235Z,6.82
2018-02-03T15:52:58.714Z,6.79
2018-02-03T15:55:28.690Z,6.72
2018-02-03T15:57:59.439Z,6.89
2018-02-03T16:00:31.892Z,6.87
2018-02-03T16:03:02.838Z,6.80
2018-02-03T16:05:33.721Z,6.72
2018-02-03T16:08:03.898Z,6.73
2018-02-03T16:10:33.955Z,6.71
2018-02-03T16:13:04.091Z,6.75
2018-02-03T16:15:34.118Z,6.74
2018-02-03T16:18:04.018Z,6.65
2018-02-03T16:20:33.998Z,6.70
2018-02-03T16:23:04.130Z,6.64
2018-02-03T16:25:33.937Z,6.62
2018-02-03T16:28:04.165Z,6.55
2018-02-03T16:30:34.167Z,6.56
2018-02-03T16:33:04.029Z,6.55
2018-02-03T16:35:34.182Z,6.56
2018-02-03T16:38:04.367Z,6.56
2018-02-03T16:40:34.218Z,6.57
2018-02-03T16:43:06.453Z,6.53
2018-02-03T16:45:38.060Z,6.59
2018-02-03T16:48:08.085Z,6.57
2018-02-03T16:50:38.345Z,6.49
2018-02-03T16:53:08.386Z,6.52
2018-02-03T16:55:39.133Z,6.48
2018-02-03T16:58:09.469Z,7.55
2018-02-03T17:00:40.893Z,7.17
2018-02-03T17:03:10.720Z,6.99
2018-02-03T17:05:40.751Z,6.82
2018-02-03T17:08:10.658Z,6.73
2018-02-03T17:10:42.464Z,6.66
2018-02-03T17:13:13.254Z,6.59
2018-02-03T17:15:43.326Z,6.56
2018-02-03T17:18:13.269Z,6.55
2018-02-03T17:20:43.400Z,6.54
2018-02-03T17:23:13.737Z,6.50
2018-02-03T17:25:44.128Z,6.50
2018-02-03T17:28:14.182Z,6.39
2018-02-03T17:30:44.111Z,6.42
2018-02-03T17:33:14.086Z,6.43
2018-02-03T17:35:44.291Z,6.44
2018-02-03T17:38:47.491Z,6.45
2018-02-03T17:41:17.631Z,6.58
2018-02-03T17:43:47.567Z,6.52
2018-02-03T17:46:22.670Z,6.50
2018-02-03T17:48:52.870Z,6.47
2018-02-03T17:51:23.446Z,6.51
2018-02-03T17:53:53.699Z,6.41
2018-02-03T17:56:28.659Z,6.37
2018-02-03T17:58:58.705Z,6.40
2018-02-03T18:01:28.740Z,6.37
2018-02-03T18:03:58.898Z,6.38
2018-02-03T18:06:32.889Z,6.35
2018-02-03T18:09:02.751Z,6.37
2018-02-03T18:11:33.021Z,6.43
2018-02-03T18:14:03.394Z,6.46
2018-02-03T18:16:33.447Z,6.34
2018-02-03T18:19:03.485Z,6.33
2018-02-03T18:21:33.533Z,6.35
2018-02-03T18:24:03.494Z,6.36
2018-02-03T18:26:33.751Z,6.36
2018-02-03T18:29:04.321Z,6.45
2018-02-03T18:31:34.316Z,6.43
2018-02-03T18:34:04.537Z,6.44
2018-02-03T18:36:34.544Z,6.38
2018-02-03T18:39:04.701Z,6.37
2018-02-03T18:41:34.956Z,6.39
2018-02-03T18:44:04.883Z,6.79
2018-02-03T18:46:34.917Z,6.64
2018-02-03T18:49:05.564Z,6.55
2018-02-03T18:51:36.507Z,6.51
2018-02-03T18:54:06.425Z,6.40
2018-02-03T18:56:36.373Z,6.41
2018-02-03T18:59:06.273Z,6.35
2018-02-03T19:01:36.137Z,6.37
2018-02-03T19:04:06.181Z,6.38
2018-02-03T19:06:36.033Z,6.50
2018-02-03T19:09:07.813Z,6.48
2018-02-03T19:11:38.545Z,6.79
2018-02-03T19:14:09.237Z,7.06
2018-02-03T19:16:39.149Z,7.23
2018-02-03T19:19:09.197Z,7.21
2018-02-03T19:21:39.427Z,6.88
2018-02-03T19:24:10.291Z,6.66
2018-02-03T19:26:40.519Z,6.50
2018-02-03T19:29:10.909Z,6.23
2018-02-03T19:31:41.220Z,6.16
2018-02-03T19:34:11.505Z,6.13
2018-02-03T19:36:42.688Z,6.09
2018-02-03T19:39:13.338Z,6.09
2018-02-03T19:41:44.170Z,6.03
2018-02-03T19:44:14.413Z,6.07
2018-02-03T19:46:44.722Z,6.04
2018-02-03T19:49:15.481Z,6.09
2018-02-03T19:51:45.671Z,6.10
2018-02-03T19:54:15.638Z,6.05
2018-02-03T19:56:45.569Z,6.04
2018-02-03T19:59:15.694Z,5.99
2018-02-03T20:01:45.884Z,5.95
2018-02-03T20:04:20.961Z,6.02
2018-02-03T20:06:50.905Z,5.98
2018-02-03T20:09:20.966Z,6.07
2018-02-03T20:11:51.037Z,6.00
2018-02-03T20:14:21.805Z,5.99
2018-02-03T20:16:51.763Z,6.00
2018-02-03T20:19:21.655Z,6.01
2018-02-03T20:21:51.472Z,5.98
2018-02-03T20:24:21.740Z,5.97
2018-02-03T20:26:51.663Z,5.94
2018-02-03T20:29:22.380Z,5.95
2018-02-03T20:31:52.371Z,5.98
2018-02-03T20:34:22.544Z,6.04
2018-02-03T20:36:53.577Z,6.06
2018-02-03T20:39:24.211Z,6.10
2018-02-03T20:41:54.942Z,6.13
2018-02-03T20:44:25.833Z,6.14
2018-02-03T20:46:55.746Z,6.08
2018-02-03T20:49:26.130Z,6.08
2018-02-03T20:51:56.912Z,6.06
2018-02-03T20:54:27.186Z,6.11
2018-02-03T20:56:58.008Z,6.10
2018-02-03T20:59:28.239Z,6.00
2018-02-03T21:01:58.998Z,5.93
2018-02-03T21:04:29.254Z,6.04
2018-02-03T21:06:59.412Z,6.06
2018-02-03T21:09:29.556Z,5.99
2018-02-03T21:11:59.653Z,6.02
2018-02-03T21:14:30.431Z,6.00
2018-02-03T21:17:00.280Z,5.93
2018-02-03T21:19:30.215Z,5.86
2018-02-03T21:22:00.282Z,5.85
2018-02-03T21:24:30.553Z,5.85
2018-02-03T21:27:00.684Z,5.86
2018-02-03T21:29:31.225Z,5.85
2018-02-03T21:32:01.541Z,5.87
2018-02-03T21:34:31.458Z,5.84
2018-02-03T21:37:01.752Z,5.90
2018-02-03T21:39:32.505Z,5.87
2018-02-03T21:42:02.703Z,5.92
2018-02-03T21:44:32.949Z,5.95
2018-02-03T21:47:02.909Z,6.01
2018-02-03T21:49:32.954Z,6.02
2018-02-03T21:52:02.955Z,6.10
2018-02-03T21:54:33.194Z,6.16
2018-02-03T21:57:03.329Z,6.03
2018-02-03T21:59:34.201Z,5.97
2018-02-03T22:02:04.339Z,5.94
2018-02-03T22:04:34.434Z,6.06
2018-02-03T22:07:04.540Z,5.83
2018-02-03T22:09:35.463Z,5.50
2018-02-03T22:12:05.845Z,5.27
2018-02-03T22:14:35.825Z,5.14
2018-02-03T22:17:06.044Z,4.82
2018-02-03T22:19:36.168Z,4.54
2018-02-03T22:22:07.005Z,4.37
2018-02-03T22:24:37.090Z,4.08
2018-02-03T22:27:07.320Z,3.87
2018-02-03T22:29:38.274Z,3.73
2018-02-03T22:32:09.340Z,3.65
2018-02-03T22:34:39.221Z,3.39
2018-02-03T22:37:09.150Z,3.39
2018-02-03T22:39:39.764Z,3.39
2018-02-03T22:42:10.963Z,3.33
2018-02-03T22:44:41.024Z,3.35
2018-02-03T22:47:11.760Z,3.40
2018-02-03T22:49:41.926Z,3.52
2018-02-03T22:52:11.809Z,3.55
2018-02-03T22:54:42.680Z,3.54
2018-02-03T22:57:12.754Z,3.47
2018-02-03T22:59:43.781Z,3.44
2018-02-03T23:02:18.422Z,3.42
2018-02-03T23:04:48.385Z,3.45
2018-02-03T23:07:18.268Z,3.93
2018-02-03T23:09:48.996Z,3.61
2018-02-03T23:12:19.753Z,3.49
2018-02-03T23:14:49.688Z,3.30
2018-02-03T23:17:19.485Z,3.27
2018-02-03T23:19:49.376Z,3.12
2018-02-03T23:22:20.062Z,2.99
2018-02-03T23:24:50.023Z,2.92
2018-02-03T23:27:20.085Z,2.76
2018-02-03T23:29:49.948Z,2.86
2018-02-03T23:32:19.972Z,2.71
2018-02-03T23:34:49.967Z,2.67
2018-02-03T23:37:20.089Z,2.92
2018-02-03T23:39:50.119Z,2.85
2018-02-03T23:42:20.172Z,2.82
2018-02-03T23:44:50.338Z,2.93
2018-02-03T23:47:21.173Z,2.95
2018-02-03T23:49:51.133Z,2.98
2018-02-03T23:52:21.433Z,3.01
2018-02-03T23:54:52.146Z,2.97
2018-02-03T23:57:22.233Z,3.00
2018-02-03T23:59:52.795Z,3.06
